Time;durP1;ratioP1;P1;durP2;ratioP2;P2;SDS_P1;SDS_P2;PMS_P1;PMS_P2;Temp;Humidity;BMP_temperature;BMP_pressure;BME280_temperature;BME280_humidity;BME280_pressure;Samples;Min_cycle;Max_cycle;Signal;HPM_P1;HPM_P2
2022/07/27 00:01:04;;;;;;;10.10;1.65;;;15.20;99.90;;;;;;5034541;28;20040;-68
2022/07/27 00:03:29;;;;;;;7.10;1.45;;;15.20;99.90;;;;;;5067681;28;20134;-68
2022/07/27 00:05:55;;;;;;;5.35;1.77;;;15.20;99.90;;;;;;5045892;28;20098;-68
2022/07/27 00:08:22;;;;;;;8.00;1.38;;;15.20;99.90;;;;;;5063167;28;20067;-68
2022/07/27 00:10:49;;;;;;;4.45;1.48;;;15.20;99.90;;;;;;5065240;28;20541;-69
2022/07/27 00:13:15;;;;;;;7.47;1.80;;;15.20;99.90;;;;;;5073959;28;20047;-68
2022/07/27 00:15:41;;;;;;;6.70;1.55;;;15.20;99.90;;;;;;5060457;28;20051;-68
2022/07/27 00:18:07;;;;;;;5.05;1.27;;;15.20;99.90;;;;;;5062476;28;20040;-68
2022/07/27 00:20:33;;;;;;;4.45;1.30;;;15.10;99.90;;;;;;5034076;28;20071;-69
2022/07/27 00:22:59;;;;;;;8.02;1.52;;;15.20;99.90;;;;;;5051684;28;20048;-67
2022/07/27 00:25:26;;;;;;;6.80;1.33;;;15.20;99.90;;;;;;5048680;28;20372;-67
2022/07/27 00:27:52;;;;;;;5.07;1.40;;;15.20;99.90;;;;;;5067119;28;20115;-69
2022/07/27 00:30:18;;;;;;;8.07;1.77;;;15.20;99.90;;;;;;5062950;28;20163;-68
2022/07/27 00:32:44;;;;;;;6.78;1.70;;;15.20;99.90;;;;;;5063601;28;20171;-67
2022/07/27 00:35:10;;;;;;;9.25;1.60;;;15.20;99.90;;;;;;5065097;28;20044;-68
2022/07/27 00:37:39;;;;;;;4.05;1.38;;;15.10;99.90;;;;;;5068787;28;20453;-68
2022/07/27 00:40:05;;;;;;;;;;;15.10;99.90;;;;;;5046173;28;20070;-68
2022/07/27 00:42:30;;;;;;;6.38;1.45;;;15.10;99.90;;;;;;5066496;28;19920;-68
2022/07/27 00:44:56;;;;;;;8.18;1.63;;;15.10;99.90;;;;;;5061731;28;20405;-69
2022/07/27 00:47:23;;;;;;;7.28;1.80;;;15.10;99.90;;;;;;5062272;28;20110;-68
2022/07/27 00:49:49;;;;;;;5.88;1.70;;;15.10;99.90;;;;;;5062878;28;20486;-67
2022/07/27 00:52:17;;;;;;;7.15;1.80;;;15.00;99.90;;;;;;5066381;28;20146;-68
2022/07/27 00:54:43;;;;;;;4.57;1.42;;;15.00;99.90;;;;;;5063584;28;20444;-67
2022/07/27 00:57:11;;;;;;;6.93;1.50;;;15.00;99.90;;;;;;5066715;28;20040;-67
2022/07/27 00:59:38;;;;;;;7.65;1.70;;;15.00;99.90;;;;;;5044277;28;20044;-68
2022/07/27 01:02:04;;;;;;;7.35;1.60;;;14.90;99.90;;;;;;5065928;28;20526;-68
2022/07/27 01:04:30;;;;;;;7.63;1.55;;;14.90;99.90;;;;;;5067642;28;20048;-69
2022/07/27 01:06:56;;;;;;;7.35;1.60;;;14.80;99.90;;;;;;5026840;28;20128;-67
2022/07/27 01:12:12;;;;;;;5.95;1.70;;;14.80;99.90;;;;;;5066410;28;20044;-69
2022/07/27 01:14:38;;;;;;;5.35;1.85;;;14.70;99.90;;;;;;5062868;28;20045;-69
2022/07/27 01:17:05;;;;;;;5.90;1.60;;;14.80;99.90;;;;;;5071240;28;20154;-69
2022/07/27 01:19:32;;;;;;;6.88;1.85;;;14.70;99.90;;;;;;5061088;28;20047;-66
2022/07/27 01:21:58;;;;;;;8.18;2.20;;;14.70;99.90;;;;;;5051567;28;20037;-68
2022/07/27 01:24:23;;;;;;;10.15;2.28;;;14.70;99.90;;;;;;5044133;28;20109;-68
2022/07/27 01:26:50;;;;;;;8.02;1.98;;;14.70;99.90;;;;;;5048827;28;20037;-69
2022/07/27 01:29:15;;;;;;;5.93;1.80;;;14.70;99.90;;;;;;5068670;28;20143;-68
2022/07/27 01:31:41;;;;;;;10.23;1.92;;;14.70;99.90;;;;;;5027137;28;20438;-69
2022/07/27 01:34:07;;;;;;;7.70;2.05;;;14.70;99.90;;;;;;5050764;28;20059;-67
2022/07/27 01:36:32;;;;;;;4.82;1.40;;;14.60;99.90;;;;;;5065240;28;20135;-69
2022/07/27 01:38:58;;;;;;;5.95;1.88;;;14.60;99.90;;;;;;5066400;28;20097;-68
2022/07/27 01:41:24;;;;;;;6.63;1.80;;;14.60;99.90;;;;;;5064586;28;20056;-68
2022/07/27 01:43:50;;;;;;;9.15;1.90;;;14.60;99.90;;;;;;5066871;28;20049;-69
2022/07/27 01:46:16;;;;;;;7.68;2.20;;;14.50;99.90;;;;;;5042958;28;20033;-69
2022/07/27 01:48:42;;;;;;;4.32;1.30;;;14.60;99.90;;;;;;5068480;28;20118;-68
2022/07/27 01:51:08;;;;;;;9.35;1.92;;;14.70;99.90;;;;;;5064608;28;20188;-69
2022/07/27 01:53:34;;;;;;;4.70;1.42;;;14.50;99.90;;;;;;5060759;28;20068;-69
2022/07/27 01:56:00;;;;;;;8.65;1.50;;;14.50;99.90;;;;;;5060068;28;20070;-69
2022/07/27 01:58:25;;;;;;;8.45;2.30;;;14.40;99.90;;;;;;5064929;28;20047;-68
2022/07/27 02:00:51;;;;;;;7.72;1.75;;;14.30;99.90;;;;;;5060380;28;20478;-68
2022/07/27 02:03:17;;;;;;;6.18;1.80;;;14.30;99.90;;;;;;5053415;28;20194;-68
2022/07/27 02:05:43;;;;;;;5.53;1.58;;;14.30;99.90;;;;;;5060357;28;20086;-71
2022/07/27 02:08:09;;;;;;;6.78;1.60;;;14.20;99.90;;;;;;5051375;28;20446;-69
2022/07/27 02:12:34;;;;;;;8.43;1.95;;;14.20;99.90;;;;;;5069836;28;20371;-67
2022/07/27 02:13:25;;;;;;;7.07;2.00;;;14.10;99.90;;;;;;5061940;28;20056;-69
2022/07/27 02:15:51;;;;;;;12.30;2.45;;;14.10;99.90;;;;;;5059195;28;20056;-68
2022/07/27 02:18:17;;;;;;;8.02;1.60;;;14.10;99.90;;;;;;5068441;28;20118;-69
2022/07/27 02:20:44;;;;;;;9.73;2.28;;;14.10;99.90;;;;;;5051118;28;20448;-68
2022/07/27 02:23:09;;;;;;;14.00;2.42;;;14.10;99.90;;;;;;5048013;28;20266;-68
2022/07/27 02:25:36;;;;;;;7.22;1.88;;;14.10;99.90;;;;;;5063439;28;20127;-68
2022/07/27 02:28:02;;;;;;;11.45;2.22;;;14.20;99.90;;;;;;5068181;28;20495;-69
2022/07/27 02:30:29;;;;;;;11.35;1.90;;;14.20;99.90;;;;;;5061693;28;20052;-68
2022/07/27 02:32:54;;;;;;;8.75;1.73;;;14.10;99.90;;;;;;5048011;28;20410;-69
2022/07/27 02:35:20;;;;;;;8.45;2.08;;;14.20;99.90;;;;;;5032988;28;20043;-69
2022/07/27 02:37:47;;;;;;;5.45;1.88;;;14.20;99.90;;;;;;5047306;28;20048;-69
2022/07/27 02:40:15;;;;;;;10.80;1.88;;;14.10;99.90;;;;;;5064887;28;20041;-68
2022/07/27 02:42:42;;;;;;;9.50;2.08;;;14.20;99.90;;;;;;5069961;28;20044;-69
2022/07/27 02:45:08;;;;;;;7.93;1.88;;;14.10;99.90;;;;;;5049488;28;20123;-68
2022/07/27 02:47:40;;;;;;;13.02;2.42;;;14.20;99.90;;;;;;5064803;28;20047;-68
2022/07/27 02:50:08;;;;;;;9.30;2.20;;;14.20;99.90;;;;;;5068224;28;20036;-68
2022/07/27 02:52:35;;;;;;;11.98;2.00;;;14.10;99.90;;;;;;5023912;28;20052;-68
2022/07/27 02:55:01;;;;;;;10.35;2.00;;;14.10;99.90;;;;;;5027996;28;20175;-68
2022/07/27 02:57:26;;;;;;;12.27;2.15;;;14.10;99.90;;;;;;5041264;28;20111;-67
2022/07/27 02:59:52;;;;;;;5.78;1.90;;;14.20;99.90;;;;;;5061408;28;20068;-68
2022/07/27 03:02:18;;;;;;;5.90;2.08;;;14.10;99.90;;;;;;5033638;28;20036;-68
2022/07/27 03:04:44;;;;;;;9.93;1.98;;;14.20;99.90;;;;;;5055103;28;20048;-69
2022/07/27 03:07:09;;;;;;;6.70;1.70;;;14.20;99.90;;;;;;5057314;28;20037;-68
2022/07/27 03:09:35;;;;;;;7.82;2.30;;;14.20;99.90;;;;;;5057129;28;20506;-68
2022/07/27 03:12:01;;;;;;;12.40;2.13;;;14.20;99.90;;;;;;5061208;28;20040;-70
2022/07/27 03:14:27;;;;;;;5.95;1.60;;;14.20;99.90;;;;;;5052703;28;20159;-68
2022/07/27 03:16:53;;;;;;;5.72;1.85;;;14.30;99.90;;;;;;5061944;28;20139;-68
2022/07/27 03:19:19;;;;;;;6.50;1.90;;;14.20;99.90;;;;;;5066020;28;20029;-69
2022/07/27 03:21:44;;;;;;;11.43;1.90;;;14.20;99.90;;;;;;5073200;28;20044;-68
2022/07/27 03:24:10;;;;;;;5.68;1.60;;;14.20;99.90;;;;;;5066892;28;20044;-69
2022/07/27 03:26:38;;;;;;;13.45;2.70;;;14.20;99.90;;;;;;5050503;28;20102;-71
2022/07/27 03:29:04;;;;;;;4.88;1.83;;;14.20;99.90;;;;;;5036542;28;20055;-69
2022/07/27 03:31:30;;;;;;;10.20;1.80;;;14.20;99.90;;;;;;5030390;28;20399;-68
2022/07/27 03:33:56;;;;;;;5.38;1.70;;;14.20;99.90;;;;;;5066456;28;20044;-67
2022/07/27 03:36:21;;;;;;;9.90;2.30;;;14.30;99.90;;;;;;5067129;28;20051;-69
2022/07/27 03:38:47;;;;;;;10.48;2.33;;;14.20;99.90;;;;;;5047096;28;20033;-69
2022/07/27 03:41:13;;;;;;;10.73;2.60;;;14.20;99.90;;;;;;5066626;28;20126;-67
2022/07/27 03:43:38;;;;;;;6.63;2.35;;;14.30;99.90;;;;;;5065601;28;20040;-68
2022/07/27 03:46:07;;;;;;;13.40;2.30;;;14.20;99.90;;;;;;5056661;28;20036;-69
2022/07/27 03:48:35;;;;;;;9.30;1.90;;;14.30;99.90;;;;;;5069410;28;20044;-68
2022/07/27 03:51:00;;;;;;;8.43;1.43;;;14.30;99.90;;;;;;5070626;28;20784;-68
2022/07/27 03:53:26;;;;;;;14.20;2.30;;;14.30;99.90;;;;;;5069755;28;20280;-69
2022/07/27 03:55:52;;;;;;;9.20;2.35;;;14.30;99.90;;;;;;5070849;28;20516;-68
2022/07/27 03:58:22;;;;;;;7.05;2.72;;;14.30;99.90;;;;;;5071492;28;20505;-68
2022/07/27 04:00:49;;;;;;;8.50;1.80;;;14.20;99.90;;;;;;5053754;28;20036;-67
2022/07/27 04:03:16;;;;;;;5.82;2.22;;;14.30;99.90;;;;;;5069061;28;20036;-68
2022/07/27 04:05:42;;;;;;;9.50;2.58;;;14.30;99.90;;;;;;5049182;28;20106;-69
2022/07/27 04:08:08;;;;;;;8.85;2.05;;;14.30;99.90;;;;;;5070640;28;20037;-69
2022/07/27 04:10:34;;;;;;;6.78;1.80;;;14.30;99.90;;;;;;5071538;28;20041;-69
2022/07/27 04:13:02;;;;;;;8.05;2.30;;;14.20;99.90;;;;;;5052225;28;20048;-69
2022/07/27 04:15:29;;;;;;;10.38;2.00;;;14.20;99.90;;;;;;5050071;28;20482;-68
2022/07/27 04:17:55;;;;;;;11.23;2.03;;;14.20;99.90;;;;;;5056797;28;20070;-69
2022/07/27 04:20:20;;;;;;;9.18;2.20;;;14.20;99.90;;;;;;5070089;28;20036;-68
2022/07/27 04:22:49;;;;;;;13.70;1.83;;;14.20;99.90;;;;;;5071592;28;20044;-68
2022/07/27 04:25:15;;;;;;;9.27;1.73;;;14.20;99.90;;;;;;5063365;28;20041;-68
2022/07/27 04:27:41;;;;;;;9.25;2.30;;;14.20;99.90;;;;;;5070844;28;20479;-69
2022/07/27 04:30:08;;;;;;;9.48;2.45;;;14.20;99.90;;;;;;5049958;28;20041;-69
2022/07/27 04:32:34;;;;;;;6.63;2.10;;;14.20;99.90;;;;;;5078091;28;20089;-68
2022/07/27 04:34:59;;;;;;;7.32;2.10;;;14.10;99.90;;;;;;5062921;28;20486;-67
2022/07/27 04:37:25;;;;;;;5.78;1.73;;;14.20;99.90;;;;;;5048933;28;20048;-68
2022/07/27 04:39:56;;;;;;;4.72;1.90;;;14.20;99.90;;;;;;5052363;28;20044;-67
2022/07/27 04:42:22;;;;;;;7.35;2.20;;;14.20;99.90;;;;;;5070922;28;20394;-67
2022/07/27 04:44:47;;;;;;;9.68;2.33;;;14.20;99.90;;;;;;5060573;28;20075;-68
2022/07/27 04:47:13;;;;;;;5.80;2.15;;;14.30;99.90;;;;;;5028781;28;20032;-69
2022/07/27 04:49:39;;;;;;;8.02;2.03;;;14.30;99.90;;;;;;5066891;28;20056;-71
2022/07/27 04:52:04;;;;;;;9.82;2.22;;;14.40;99.90;;;;;;5065452;28;20040;-68
2022/07/27 04:54:39;;;;;;;10.55;2.50;;;14.50;99.90;;;;;;5045263;28;20032;-68
2022/07/27 04:57:08;;;;;;;13.48;2.38;;;14.50;99.90;;;;;;5051322;28;20146;-68
2022/07/27 04:59:34;;;;;;;9.27;2.33;;;14.50;99.90;;;;;;5066499;28;20043;-67
2022/07/27 05:02:03;;;;;;;8.05;2.20;;;14.50;99.90;;;;;;5065864;28;20044;-69
2022/07/27 05:04:28;;;;;;;7.13;2.05;;;14.50;99.90;;;;;;5059982;28;20048;-67
2022/07/27 05:06:57;;;;;;;7.03;2.20;;;14.50;99.90;;;;;;5048192;28;20044;-68
2022/07/27 05:09:23;;;;;;;10.90;2.75;;;14.60;99.90;;;;;;5053375;28;20059;-68
2022/07/27 05:11:48;;;;;;;11.30;2.85;;;14.60;99.90;;;;;;5067640;28;20491;-69
2022/07/27 05:14:15;;;;;;;8.88;2.78;;;14.60;99.90;;;;;;5064588;28;20040;-68
2022/07/27 05:16:40;;;;;;;7.65;2.70;;;14.70;99.90;;;;;;5050798;28;20052;-68
2022/07/27 05:19:10;;;;;;;11.32;2.63;;;14.70;99.90;;;;;;5065718;28;20407;-68
2022/07/27 05:21:37;;;;;;;10.82;2.63;;;14.80;99.90;;;;;;5049372;28;20125;-69
2022/07/27 05:24:03;;;;;;;8.70;2.10;;;14.80;99.90;;;;;;5047162;28;20056;-68
2022/07/27 05:26:28;;;;;;;10.55;2.35;;;14.80;99.90;;;;;;5053168;28;20047;-69
2022/07/27 05:28:54;;;;;;;7.15;2.20;;;14.80;99.90;;;;;;5044848;28;20049;-67
2022/07/27 05:31:20;;;;;;;6.82;2.15;;;14.80;99.90;;;;;;5057979;28;20414;-68
2022/07/27 05:33:46;;;;;;;9.90;2.72;;;14.70;99.90;;;;;;5059142;28;20129;-68
2022/07/27 05:36:11;;;;;;;7.15;2.28;;;14.70;99.90;;;;;;5052762;28;20121;-68
2022/07/27 05:38:39;;;;;;;9.98;2.28;;;14.70;99.90;;;;;;5066862;28;20049;-68
2022/07/27 05:41:08;;;;;;;9.55;2.38;;;14.60;99.90;;;;;;5068171;28;20052;-67
2022/07/27 05:43:34;;;;;;;8.40;2.22;;;14.60;99.90;;;;;;5065600;28;20120;-68
2022/07/27 05:46:02;;;;;;;8.35;2.03;;;14.70;99.90;;;;;;5045951;28;20108;-68
2022/07/27 05:48:28;;;;;;;9.20;2.58;;;14.70;99.90;;;;;;5059526;28;20124;-68
2022/07/27 05:50:54;;;;;;;7.38;2.33;;;14.70;99.90;;;;;;5055204;28;20136;-68
2022/07/27 05:53:20;;;;;;;4.93;2.20;;;14.70;99.90;;;;;;5047214;28;20129;-68
2022/07/27 05:55:45;;;;;;;9.10;3.03;;;14.70;99.90;;;;;;5061991;28;20578;-67
2022/07/27 05:58:11;;;;;;;9.23;2.42;;;14.80;99.90;;;;;;5063612;28;20051;-68
2022/07/27 06:00:40;;;;;;;15.93;3.42;;;14.80;99.90;;;;;;5061648;28;20036;-68
2022/07/27 06:03:05;;;;;;;10.57;2.35;;;14.90;99.90;;;;;;5069814;28;20128;-68
2022/07/27 06:05:32;;;;;;;8.20;2.53;;;14.90;99.90;;;;;;5061447;28;20537;-68
2022/07/27 06:07:58;;;;;;;13.20;2.65;;;14.90;99.90;;;;;;5036020;28;20048;-68
2022/07/27 06:10:29;;;;;;;11.38;2.15;;;15.00;99.90;;;;;;5068254;28;20566;-69
2022/07/27 06:12:55;;;;;;;6.63;2.00;;;15.00;99.90;;;;;;5070428;28;20444;-69
2022/07/27 06:15:21;;;;;;;10.30;2.30;;;15.10;99.90;;;;;;5069250;28;20041;-68
2022/07/27 06:17:52;;;;;;;10.50;2.28;;;15.10;99.90;;;;;;5066865;28;20486;-67
2022/07/27 06:20:19;;;;;;;9.77;2.50;;;15.20;99.90;;;;;;5056790;28;20048;-69
2022/07/27 06:22:53;;;;;;;9.40;2.20;;;15.30;99.90;;;;;;5051927;28;20076;-68
2022/07/27 06:25:20;;;;;;;6.97;2.05;;;15.40;99.90;;;;;;5063913;28;20107;-66
2022/07/27 06:27:46;;;;;;;12.17;2.27;;;15.50;99.90;;;;;;5067603;28;20051;-69
2022/07/27 06:30:14;;;;;;;9.00;2.03;;;15.70;99.90;;;;;;5050491;28;20044;-68
2022/07/27 06:32:41;;;;;;;14.07;3.03;;;15.80;99.90;;;;;;5067764;28;20468;-68
2022/07/27 06:35:10;;;;;;;11.15;2.10;;;16.00;99.90;;;;;;5051095;28;20050;-69
2022/07/27 06:37:36;;;;;;;8.55;1.83;;;16.10;99.90;;;;;;5048393;28;20059;-69
2022/07/27 06:40:03;;;;;;;10.35;2.08;;;16.20;99.90;;;;;;5061561;28;20094;-68
2022/07/27 06:42:29;;;;;;;6.32;1.80;;;16.40;99.90;;;;;;5038128;28;20539;-70
2022/07/27 06:44:55;;;;;;;7.97;2.03;;;16.50;99.90;;;;;;5044069;28;20102;-68
2022/07/27 06:47:21;;;;;;;10.85;1.90;;;16.50;99.90;;;;;;5031679;28;20068;-69
2022/07/27 06:49:47;;;;;;;9.07;1.92;;;16.70;99.90;;;;;;5069039;28;21689;-68
2022/07/27 06:52:13;;;;;;;10.93;2.00;;;16.80;99.90;;;;;;5067931;28;20127;-69
2022/07/27 06:54:38;;;;;;;9.18;2.45;;;16.90;99.90;;;;;;5061371;28;20119;-68
2022/07/27 06:57:04;;;;;;;6.35;1.95;;;17.10;99.90;;;;;;5044680;28;20047;-69
2022/07/27 06:59:31;;;;;;;6.45;2.13;;;17.10;99.90;;;;;;5060388;28;20079;-69
2022/07/27 07:01:57;;;;;;;5.78;1.75;;;17.30;99.90;;;;;;5062329;28;20650;-68
2022/07/27 07:04:23;;;;;;;5.97;1.73;;;17.40;99.90;;;;;;5065039;28;20072;-67
2022/07/27 07:06:49;;;;;;;10.27;2.50;;;17.50;99.90;;;;;;5059048;28;20063;-68
2022/07/27 07:09:15;;;;;;;9.02;1.73;;;17.60;99.90;;;;;;5060896;28;20139;-67
2022/07/27 07:11:40;;;;;;;9.73;2.03;;;17.80;99.90;;;;;;5060802;28;20526;-68
2022/07/27 07:14:06;;;;;;;8.27;1.90;;;17.80;99.90;;;;;;5052743;28;20076;-68
2022/07/27 07:16:32;;;;;;;6.88;1.98;;;17.90;99.90;;;;;;5063104;28;20055;-67
2022/07/27 07:18:58;;;;;;;11.82;2.10;;;18.00;99.90;;;;;;5047108;28;20099;-68
2022/07/27 07:21:27;;;;;;;9.18;2.00;;;17.90;99.70;;;;;;5066988;28;20053;-68
2022/07/27 07:23:52;;;;;;;12.25;1.90;;;17.90;99.70;;;;;;5052048;28;20044;-67
2022/07/27 07:26:18;;;;;;;8.65;1.63;;;17.80;99.90;;;;;;5046476;28;20036;-68
2022/07/27 07:28:47;;;;;;;3.13;1.15;;;17.80;99.40;;;;;;5060596;28;20479;-69
2022/07/27 07:31:14;;;;;;;6.80;1.70;;;17.60;99.90;;;;;;5061859;28;20048;-68
2022/07/27 07:33:40;;;;;;;6.80;1.67;;;17.40;99.90;;;;;;5048425;28;20059;-68
2022/07/27 07:36:09;;;;;;;8.27;1.95;;;17.10;99.90;;;;;;5063910;28;20128;-71
2022/07/27 07:38:35;;;;;;;10.30;2.40;;;16.90;99.90;;;;;;5057135;28;20082;-67
2022/07/27 07:41:06;;;;;;;8.75;1.98;;;16.70;99.90;;;;;;5063769;28;20049;-67
2022/07/27 07:43:34;;;;;;;14.52;2.28;;;16.50;99.90;;;;;;5070710;28;20080;-69
2022/07/27 07:46:00;;;;;;;8.13;1.50;;;16.50;99.90;;;;;;5066244;28;20041;-67
2022/07/27 07:48:25;;;;;;;5.90;1.55;;;16.50;99.90;;;;;;5064531;28;20061;-67
2022/07/27 07:50:52;;;;;;;8.02;1.67;;;16.40;99.90;;;;;;5032741;28;20079;-67
2022/07/27 07:53:18;;;;;;;8.27;1.83;;;16.40;99.90;;;;;;5042205;28;20490;-67
2022/07/27 07:55:43;;;;;;;8.90;2.00;;;16.40;99.90;;;;;;5059704;28;20059;-66
2022/07/27 07:58:09;;;;;;;6.45;1.85;;;16.40;99.90;;;;;;5056600;28;20051;-66
2022/07/27 08:00:35;;;;;;;8.68;1.80;;;16.50;99.90;;;;;;5045589;28;20039;-66
2022/07/27 08:03:00;;;;;;;7.95;1.95;;;16.50;99.90;;;;;;5049925;28;20093;-69
2022/07/27 08:05:26;;;;;;;8.00;1.85;;;16.60;99.90;;;;;;5063176;28;20044;-67
2022/07/27 08:07:54;;;;;;;8.75;1.98;;;16.60;99.90;;;;;;5074387;28;20048;-68
2022/07/27 08:10:21;;;;;;;5.20;1.77;;;16.60;99.90;;;;;;5073821;28;20388;-69
2022/07/27 08:12:51;;;;;;;7.15;1.90;;;16.60;99.90;;;;;;5062999;28;20040;-68
2022/07/27 08:15:19;;;;;;;7.80;1.70;;;16.70;99.90;;;;;;5072506;28;20036;-68
2022/07/27 08:17:45;;;;;;;8.20;1.70;;;16.70;99.90;;;;;;5041015;28;20056;-67
2022/07/27 08:20:13;;;;;;;7.28;2.00;;;16.70;99.90;;;;;;5062603;28;20036;-68
2022/07/27 08:22:39;;;;;;;8.20;1.52;;;16.80;99.90;;;;;;5063368;28;20527;-67
2022/07/27 08:25:15;;;;;;;7.30;1.92;;;16.80;99.90;;;;;;5061401;28;20047;-68
2022/07/27 08:27:41;;;;;;;7.43;2.08;;;16.70;99.90;;;;;;5073950;28;20482;-68
2022/07/27 08:30:09;;;;;;;9.05;1.92;;;16.70;99.90;;;;;;5073487;28;20430;-68
2022/07/27 08:32:53;;;;;;;7.90;2.03;;;16.80;99.90;;;;;;5006672;28;20059;-67
2022/07/27 08:35:20;;;;;;;6.15;1.60;;;16.90;99.90;;;;;;5040096;28;20115;-67
2022/07/27 08:37:46;;;;;;;10.70;1.67;;;16.90;99.90;;;;;;5066669;28;20048;-67
2022/07/27 08:40:12;;;;;;;7.20;1.85;;;16.90;99.90;;;;;;5066821;28;20101;-68
2022/07/27 08:42:42;;;;;;;15.10;2.67;;;16.90;99.90;;;;;;5069730;28;20542;-68
2022/07/27 08:45:20;;;;;;;9.63;2.05;;;17.00;99.90;;;;;;5029896;28;20037;-69
2022/07/27 08:47:46;;;;;;;11.13;2.30;;;17.10;99.90;;;;;;5063707;28;20110;-69
2022/07/27 08:50:24;;;;;;;8.18;2.30;;;17.10;99.90;;;;;;5042324;28;20085;-67
2022/07/27 08:53:03;;;;;;;4.68;1.40;;;17.00;99.90;;;;;;5033942;28;20044;-69
2022/07/27 08:55:31;;;;;;;8.60;1.55;;;17.20;99.90;;;;;;5048976;28;20124;-68
2022/07/27 08:57:57;;;;;;;6.20;2.05;;;17.30;99.90;;;;;;5070790;28;20119;-68
2022/07/27 09:00:24;;;;;;;5.80;1.60;;;17.40;99.90;;;;;;5071537;28;20075;-66
2022/07/27 09:02:50;;;;;;;4.03;1.67;;;17.60;99.00;;;;;;5059073;28;20124;-68
2022/07/27 09:05:16;;;;;;;8.20;1.33;;;17.60;98.00;;;;;;5065220;28;20047;-66
2022/07/27 09:07:42;;;;;;;5.97;1.60;;;17.70;96.70;;;;;;5067233;28;20127;-69
2022/07/27 09:10:08;;;;;;;7.60;1.52;;;17.70;97.20;;;;;;5023905;28;20037;-68
2022/07/27 09:12:34;;;;;;;7.50;1.35;;;17.80;96.90;;;;;;5062945;28;20043;-67
2022/07/27 09:15:12;;;;;;;5.78;1.40;;;17.90;96.90;;;;;;5042621;28;20048;-68
2022/07/27 09:17:40;;;;;;;6.13;1.48;;;18.10;95.70;;;;;;5049768;28;20483;-68
2022/07/27 09:20:11;;;;;;;;;;;18.10;95.00;;;;;;5055232;28;20040;-68
2022/07/27 09:22:52;;;;;;;10.50;1.42;;;18.20;94.70;;;;;;5071125;28;19928;-67
2022/07/27 09:25:24;;;;;;;4.55;1.40;;;18.30;94.40;;;;;;5044877;28;20049;-69
2022/07/27 09:27:55;;;;;;;7.03;1.65;;;18.40;93.70;;;;;;5043067;28;20044;-67
2022/07/27 09:30:21;;;;;;;6.32;1.60;;;18.50;93.80;;;;;;5027807;28;20431;-68
2022/07/27 09:33:05;;;;;;;3.38;1.10;;;18.50;93.50;;;;;;5053061;28;20186;-67
2022/07/27 09:35:34;;;;;;;7.15;1.90;;;18.60;94.00;;;;;;5053300;28;20055;-68
2022/07/27 09:38:19;;;;;;;4.43;1.13;;;18.70;94.20;;;;;;5042894;28;20490;-69
2022/07/27 09:40:45;;;;;;;5.38;1.30;;;18.90;93.40;;;;;;5051531;28;20049;-66
2022/07/27 09:43:15;;;;;;;7.40;1.30;;;19.00;92.70;;;;;;5053700;28;20525;-70
2022/07/27 09:45:42;;;;;;;9.77;1.20;;;19.10;92.00;;;;;;5047148;28;20057;-70
2022/07/27 09:48:16;;;;;;;5.97;1.67;;;19.10;92.30;;;;;;5078646;28;20044;-68
2022/07/27 09:50:45;;;;;;;8.13;1.60;;;19.10;92.10;;;;;;5058040;28;20143;-68
2022/07/27 09:53:16;;;;;;;3.80;1.30;;;19.20;92.10;;;;;;5073764;28;20041;-68
2022/07/27 09:55:44;;;;;;;3.55;1.38;;;19.20;91.70;;;;;;5061488;28;20088;-68
2022/07/27 09:58:09;;;;;;;3.97;1.65;;;19.20;91.20;;;;;;5032693;28;20044;-67
2022/07/27 10:00:35;;;;;;;6.20;1.30;;;19.30;91.90;;;;;;5042314;28;20056;-67
2022/07/27 10:03:01;;;;;;;5.85;1.50;;;19.40;91.30;;;;;;5069598;28;20080;-67
2022/07/27 10:05:28;;;;;;;2.75;1.38;;;19.40;91.60;;;;;;5062430;28;20032;-68
2022/07/27 10:07:54;;;;;;;6.18;1.83;;;19.40;91.50;;;;;;5045413;28;20057;-68
2022/07/27 10:10:21;;;;;;;6.75;1.45;;;19.40;91.30;;;;;;5056780;28;20479;-68
2022/07/27 10:12:48;;;;;;;2.47;1.20;;;19.40;91.40;;;;;;5045790;28;20045;-69
2022/07/27 10:15:14;;;;;;;4.00;1.42;;;19.30;91.00;;;;;;5066045;28;20132;-70
2022/07/27 10:17:42;;;;;;;4.78;1.15;;;19.20;90.00;;;;;;5049558;28;20124;-67
2022/07/27 10:20:08;;;;;;;;;;;19.10;90.30;;;;;;5068499;28;20107;-67
2022/07/27 10:22:55;;;;;;;3.22;1.15;;;19.10;90.20;;;;;;5054283;28;19920;-68
2022/07/27 10:25:25;;;;;;;5.50;1.30;;;18.90;90.60;;;;;;5064031;28;20036;-68
2022/07/27 10:28:15;;;;;;;5.05;2.05;;;18.90;90.50;;;;;;5045121;28;20042;-67
2022/07/27 10:30:41;;;;;;;18.33;2.33;;;18.80;91.00;;;;;;5060658;28;20076;-69
2022/07/27 10:33:44;;;;;;;3.92;1.13;;;18.90;91.20;;;;;;5044504;28;20064;-69
2022/07/27 10:36:34;;;;;;;7.60;1.20;;;18.90;90.80;;;;;;5067276;28;20044;-67
2022/07/27 10:39:05;;;;;;;5.10;1.30;;;19.00;91.20;;;;;;5060348;28;20067;-65
2022/07/27 10:41:34;;;;;;;4.85;0.95;;;19.40;89.40;;;;;;5050070;28;20059;-65
2022/07/27 10:44:17;;;;;;;2.83;1.10;;;19.80;90.10;;;;;;5065214;28;20137;-67
2022/07/27 10:46:47;;;;;;;5.13;1.27;;;20.20;90.10;;;;;;5062020;28;20213;-65
2022/07/27 10:49:21;;;;;;;3.38;0.93;;;20.40;88.70;;;;;;5063659;28;20040;-66
2022/07/27 10:51:52;;;;;;;4.30;1.05;;;20.40;85.90;;;;;;5058622;28;20425;-67
2022/07/27 10:54:21;;;;;;;4.00;1.00;;;20.20;85.30;;;;;;5055373;28;20028;-68
2022/07/27 10:56:49;;;;;;;3.10;1.02;;;20.10;83.10;;;;;;5072540;28;20090;-67
2022/07/27 10:59:37;;;;;;;3.38;1.05;;;20.00;84.00;;;;;;5061006;28;20045;-67
2022/07/27 11:02:04;;;;;;;3.47;0.95;;;20.20;81.70;;;;;;5063368;28;20052;-67
2022/07/27 11:04:31;;;;;;;4.03;1.20;;;20.60;83.70;;;;;;5064146;28;20671;-69
2022/07/27 11:07:01;;;;;;;4.78;1.13;;;20.90;80.50;;;;;;5070892;28;20044;-66
2022/07/27 11:09:38;;;;;;;3.58;1.17;;;20.60;80.90;;;;;;5067943;28;20083;-66
2022/07/27 11:12:05;;;;;;;3.90;1.00;;;20.30;82.40;;;;;;5071408;28;20486;-67
2022/07/27 11:14:49;;;;;;;7.30;1.30;;;20.00;83.10;;;;;;5039410;28;20045;-67
2022/07/27 11:17:18;;;;;;;6.43;1.20;;;19.80;85.90;;;;;;5052198;28;20120;-67
2022/07/27 11:19:44;;;;;;;4.28;1.20;;;19.60;87.90;;;;;;5051529;28;20045;-70
2022/07/27 11:22:10;;;;;;;6.18;2.05;;;19.50;87.90;;;;;;5033872;28;20567;-68
2022/07/27 11:24:36;;;;;;;6.75;1.48;;;19.40;88.70;;;;;;5065110;28;20041;-68
2022/07/27 11:27:03;;;;;;;4.57;1.40;;;19.40;89.80;;;;;;5070976;28;20048;-66
2022/07/27 11:29:35;;;;;;;5.93;1.23;;;19.40;89.00;;;;;;5062356;28;20495;-67
2022/07/27 11:32:02;;;;;;;7.47;1.40;;;19.40;90.00;;;;;;5055380;28;20029;-68
2022/07/27 11:34:30;;;;;;;5.57;1.33;;;19.40;87.70;;;;;;5056614;28;20509;-67
2022/07/27 11:37:01;;;;;;;;;;;19.30;86.00;;;;;;5053977;28;20489;-66
2022/07/27 11:39:29;;;;;;;4.45;1.00;;;19.30;87.20;;;;;;5064962;28;19920;-68
2022/07/27 11:41:56;;;;;;;4.45;1.42;;;19.20;87.90;;;;;;5075324;28;20045;-69
2022/07/27 11:44:23;;;;;;;9.80;1.17;;;19.30;87.70;;;;;;5057927;28;20048;-67
2022/07/27 11:46:50;;;;;;;5.95;1.23;;;19.60;88.40;;;;;;5055256;28;20045;-69
2022/07/27 11:49:25;;;;;;;6.00;1.27;;;19.70;88.80;;;;;;5055314;28;20471;-67
2022/07/27 11:51:52;;;;;;;5.05;1.17;;;19.80;88.30;;;;;;5055749;28;20037;-67
2022/07/27 11:54:39;;;;;;;7.27;1.17;;;19.70;89.60;;;;;;5062549;28;20094;-68
2022/07/27 11:57:15;;;;;;;4.30;1.20;;;19.70;88.60;;;;;;5057453;28;20119;-67
2022/07/27 11:59:43;;;;;;;4.30;1.60;;;19.70;89.30;;;;;;5067350;28;20433;-66
2022/07/27 12:02:12;;;;;;;;;;;19.70;90.60;;;;;;5057379;28;20063;-66
2022/07/27 12:04:39;;;;;;;2.88;1.08;;;19.50;90.70;;;;;;5060514;28;20448;-64
2022/07/27 12:07:11;;;;;;;6.80;1.70;;;19.40;90.70;;;;;;5074887;28;20090;-67
2022/07/27 12:09:42;;;;;;;5.10;1.50;;;19.20;90.80;;;;;;5069592;28;20120;-67
2022/07/27 12:12:18;;;;;;;5.93;1.45;;;19.10;90.90;;;;;;5054611;28;20099;-67
2022/07/27 12:14:46;;;;;;;4.32;1.35;;;19.00;91.20;;;;;;5037622;28;20149;-69
2022/07/27 12:17:20;;;;;;;;;;;19.00;91.60;;;;;;5057294;28;20443;-67
2022/07/27 12:19:56;;;;;;;5.38;1.33;;;19.30;90.80;;;;;;5063017;28;19920;-67
2022/07/27 12:22:24;;;;;;;5.43;1.40;;;19.60;89.90;;;;;;5019978;28;20044;-66
2022/07/27 12:24:50;;;;;;;6.18;1.60;;;19.80;90.30;;;;;;5063599;28;20380;-69
2022/07/27 12:27:20;;;;;;;2.90;1.30;;;19.90;90.10;;;;;;5036291;28;20102;-68
2022/07/27 12:30:05;;;;;;;2.78;1.15;;;19.90;88.50;;;;;;5070036;28;20048;-68
2022/07/27 12:32:34;;;;;;;4.00;1.27;;;19.80;88.60;;;;;;5054352;28;20082;-68
2022/07/27 12:35:13;;;;;;;6.38;1.63;;;19.70;88.90;;;;;;5074078;28;20048;-68
2022/07/27 12:37:41;;;;;;;9.57;1.80;;;19.70;89.60;;;;;;5056246;28;20036;-67
2022/07/27 12:40:15;;;;;;;5.63;1.70;;;19.70;89.40;;;;;;5033692;28;20049;-67
2022/07/27 12:42:41;;;;;;;7.43;1.73;;;20.00;87.90;;;;;;5052697;28;20041;-71
2022/07/27 12:45:18;;;;;;;8.82;1.27;;;20.20;87.60;;;;;;5071116;28;20140;-68
2022/07/27 12:47:44;;;;;;;5.00;1.77;;;20.30;87.70;;;;;;5073912;28;20425;-68
2022/07/27 12:50:14;;;;;;;5.97;1.27;;;20.10;88.50;;;;;;5054857;28;20083;-67
2022/07/27 12:52:51;;;;;;;4.22;1.25;;;20.00;86.20;;;;;;5074137;28;20071;-69